Terminal Aerodrome Forecast
Issued by NWS

Home | Current Version | Previous Version | Text Only | Print | Product List | Glossary On
Versions: 1 2 3 4 5 6 7 8 9 10 11 12 13 14 15 16 17 18 19 20 21 22 23 24
000
FTUS45 KBYZ 041720
TAFLVM
TAF
KLVM 041720Z 0418/0518 09011KT P6SM BKN025
     FM042200 09015G24KT P6SM VCTS SCT030 BKN050CB OVC100
     FM050600 09014KT P6SM SCT030 OVC050
     FM051400 08009KT P6SM VCSH SCT020 BKN050=

USA.gov is the U.S. government's official web portal to all federal, state and local government web resources and services.